Terminal Aerodrome Forecast
Issued by NWS

Home | Current Version | Previous Version | Text Only | Print | Product List | Glossary On
Versions: 1 2 3 4 5 6 7 8 9 10 11 12 13 14 15
000
FTUS46 KSTO 232320
TAFMHR
TAF
KMHR 232320Z 2400/2424 19006KT P6SM SCT250
     FM240300 18005KT P6SM OVC100
     FM241200 15010KT P6SM -RA OVC050
     FM241600 15010G17KT P6SM -RA OVC050
     FM242000 15022G28KT 5SM -RA OVC025=

USA.gov is the U.S. government's official web portal to all federal, state and local government web resources and services.